Time;durP1;ratioP1;P1;durP2;ratioP2;P2;SDS_P1;SDS_P2;PMS_P1;PMS_P2;Temp;Humidity;BMP_temperature;BMP_pressure;BME280_temperature;BME280_humidity;BME280_pressure;Samples;Min_cycle;Max_cycle;Signal;HPM_P1;HPM_P2
2022/08/01 00:01:36;;;;;;;7.65;2.50;;;24.10;64.10;;;;;;5024234;28;20105;-66
2022/08/01 00:04:02;;;;;;;7.65;2.60;;;24.10;64.10;;;;;;5026292;28;20030;-66
2022/08/01 00:06:28;;;;;;;7.15;2.67;;;24.10;64.00;;;;;;5025652;28;20029;-66
2022/08/01 00:08:53;;;;;;;7.75;2.50;;;24.10;64.10;;;;;;5025335;28;20037;-66
2022/08/01 00:11:19;;;;;;;7.53;2.92;;;24.10;64.10;;;;;;5025427;28;20026;-66
2022/08/01 00:13:45;;;;;;;7.57;2.45;;;24.10;64.10;;;;;;5025347;28;20156;-66
2022/08/01 00:16:10;;;;;;;8.80;2.60;;;24.10;65.20;;;;;;5024000;28;20399;-66
2022/08/01 00:18:36;;;;;;;10.15;2.90;;;24.10;64.10;;;;;;5023011;28;20472;-66
2022/08/01 00:21:03;;;;;;;8.35;2.50;;;24.10;64.10;;;;;;5024798;28;20072;-66
2022/08/01 00:23:29;;;;;;;8.38;2.55;;;24.10;64.10;;;;;;5026469;28;20052;-66
2022/08/01 00:25:54;;;;;;;8.75;2.80;;;24.00;64.10;;;;;;5026624;28;20061;-66
2022/08/01 00:28:20;;;;;;;8.18;2.63;;;24.00;64.10;;;;;;5025035;28;20040;-66
2022/08/01 00:30:46;;;;;;;6.85;2.55;;;24.00;64.00;;;;;;5027363;28;20029;-66
2022/08/01 00:33:11;;;;;;;9.13;2.50;;;24.00;64.10;;;;;;5026222;28;20041;-66
2022/08/01 00:35:37;;;;;;;8.48;2.65;;;24.00;64.10;;;;;;5027599;28;20055;-66
2022/08/01 00:38:02;;;;;;;6.28;2.47;;;24.00;64.10;;;;;;5026738;28;20071;-66
2022/08/01 00:40:28;;;;;;;6.35;2.35;;;24.00;64.10;;;;;;5027966;28;20613;-66
2022/08/01 00:42:54;;;;;;;8.70;2.80;;;24.00;64.10;;;;;;5026458;28;20791;-66
2022/08/01 00:45:19;;;;;;;5.63;2.50;;;24.00;64.10;;;;;;5026136;28;20028;-66
2022/08/01 00:47:45;;;;;;;5.88;2.22;;;24.00;64.10;;;;;;5026344;28;20024;-66
2022/08/01 00:50:11;;;;;;;6.78;2.70;;;24.00;64.10;;;;;;5027041;28;20030;-66
2022/08/01 00:52:36;;;;;;;5.30;2.40;;;24.00;64.10;;;;;;5025382;28;20013;-66
2022/08/01 00:55:02;;;;;;;6.28;2.42;;;24.00;64.10;;;;;;5029865;28;20090;-66
2022/08/01 00:57:28;;;;;;;6.70;2.42;;;24.00;64.10;;;;;;5026202;28;20033;-66
2022/08/01 00:59:54;;;;;;;7.20;2.60;;;24.00;64.00;;;;;;5028218;28;20033;-66
2022/08/01 01:02:19;;;;;;;5.60;2.50;;;24.00;64.00;;;;;;5055988;28;20167;-66
2022/08/01 01:04:45;;;;;;;6.28;2.10;;;24.00;64.10;;;;;;5024635;28;20469;-66
2022/08/01 01:07:13;;;;;;;4.22;2.20;;;24.00;64.10;;;;;;5028086;28;20624;-66
2022/08/01 01:09:41;;;;;;;8.02;2.67;;;24.00;64.10;;;;;;5027666;28;20521;-66
2022/08/01 01:12:32;;;;;;;4.50;2.45;;;24.00;64.10;;;;;;5026255;28;20037;-66
2022/08/01 01:15:15;;;;;;;7.80;2.30;;;24.00;64.10;;;;;;5028144;28;20389;-66
2022/08/01 01:17:55;;;;;;;5.38;2.40;;;24.00;64.20;;;;;;5011067;28;20099;-66
2022/08/01 01:20:23;;;;;;;5.72;2.28;;;23.90;64.10;;;;;;5024770;28;20018;-66
2022/08/01 01:23:27;;;;;;;6.07;2.40;;;23.90;64.00;;;;;;5027546;28;20129;-66
2022/08/01 01:26:23;;;;;;;5.25;2.28;;;23.90;64.10;;;;;;5026282;28;20033;-66
2022/08/01 01:29:04;;;;;;;6.18;2.30;;;23.90;64.80;;;;;;5026627;28;20407;-66
2022/08/01 01:31:31;;;;;;;6.68;2.40;;;23.90;64.10;;;;;;5025156;28;20098;-66
2022/08/01 01:33:56;;;;;;;7.13;2.35;;;23.90;64.10;;;;;;5027053;28;20390;-66
2022/08/01 01:36:22;;;;;;;5.72;2.20;;;23.90;64.10;;;;;;5025950;28;20075;-66
2022/08/01 01:38:48;;;;;;;7.47;2.30;;;23.90;64.10;;;;;;5022311;28;20188;-66
2022/08/01 01:41:15;;;;;;;5.57;2.50;;;23.90;64.30;;;;;;5020946;28;20486;-66
2022/08/01 01:43:41;;;;;;;4.07;2.40;;;23.90;64.10;;;;;;5023457;28;20071;-66
2022/08/01 01:46:07;;;;;;;4.95;2.33;;;23.90;64.10;;;;;;5041296;28;20057;-66
2022/08/01 01:48:33;;;;;;;6.45;2.30;;;23.80;64.00;;;;;;5025060;28;20090;-66
2022/08/01 01:50:59;;;;;;;5.45;2.38;;;23.90;64.20;;;;;;5026069;28;20034;-66
2022/08/01 01:53:25;;;;;;;5.00;2.42;;;23.80;64.10;;;;;;5025694;28;20061;-66
2022/08/01 01:55:52;;;;;;;7.18;2.70;;;23.80;64.10;;;;;;5025633;28;20505;-66
2022/08/01 01:58:18;;;;;;;6.28;2.28;;;23.80;64.10;;;;;;5027137;28;20116;-66
2022/08/01 02:00:44;;;;;;;4.95;2.00;;;23.80;64.10;;;;;;5025718;28;20159;-66
2022/08/01 02:03:11;;;;;;;6.57;2.30;;;23.80;64.10;;;;;;5041333;28;20025;-66
2022/08/01 02:05:36;;;;;;;5.07;2.17;;;23.80;64.00;;;;;;5027400;28;20028;-66
2022/08/01 02:08:02;;;;;;;5.55;2.30;;;23.80;64.00;;;;;;5026131;28;20025;-66
2022/08/01 02:10:29;;;;;;;4.05;2.10;;;23.80;64.10;;;;;;5025026;28;20437;-66
2022/08/01 02:12:54;;;;;;;5.25;2.08;;;23.80;64.10;;;;;;5026304;28;20113;-66
2022/08/01 02:15:20;;;;;;;6.65;2.53;;;23.80;65.10;;;;;;5026470;28;20168;-66
2022/08/01 02:17:48;;;;;;;5.07;2.10;;;23.80;64.10;;;;;;5025010;28;20097;-65
2022/08/01 02:20:14;;;;;;;5.28;2.20;;;23.80;64.10;;;;;;5026099;28;20119;-66
2022/08/01 02:22:52;;;;;;;5.35;2.33;;;23.80;64.10;;;;;;5026332;28;20052;-66
2022/08/01 02:25:38;;;;;;;4.45;1.98;;;23.80;64.10;;;;;;5006061;28;20018;-66
2022/08/01 02:28:35;;;;;;;4.57;2.05;;;23.80;64.10;;;;;;5024014;28;20395;-66
2022/08/01 02:31:03;;;;;;;5.05;2.28;;;23.80;64.10;;;;;;5041880;28;20049;-66
2022/08/01 02:33:33;;;;;;;5.05;2.20;;;23.80;64.00;;;;;;5025775;28;20025;-66
2022/08/01 02:35:59;;;;;;;5.30;1.92;;;23.80;64.00;;;;;;5022932;28;20111;-66
2022/08/01 02:38:26;;;;;;;5.32;2.45;;;23.80;64.00;;;;;;5056043;28;20450;-66
2022/08/01 02:40:52;;;;;;;4.45;2.08;;;23.80;64.00;;;;;;5025503;28;20108;-66
2022/08/01 02:43:20;;;;;;;3.47;2.00;;;23.70;63.90;;;;;;5025850;28;20037;-66
2022/08/01 02:45:49;;;;;;;4.85;2.20;;;23.70;63.90;;;;;;5055224;28;20105;-66
2022/08/01 02:48:15;;;;;;;6.18;2.38;;;23.70;64.00;;;;;;5026014;28;20528;-66
2022/08/01 02:50:43;;;;;;;3.63;1.95;;;23.70;63.90;;;;;;5025679;28;20053;-66
2022/08/01 02:53:10;;;;;;;5.18;1.98;;;23.70;63.90;;;;;;5024364;28;20540;-66
2022/08/01 02:55:35;;;;;;;4.65;2.30;;;23.70;63.80;;;;;;5020118;28;20512;-66
2022/08/01 02:58:01;;;;;;;4.60;2.10;;;23.70;63.80;;;;;;5009547;28;20029;-66
2022/08/01 03:00:27;;;;;;;4.85;2.17;;;23.70;63.80;;;;;;5023825;28;20044;-66
2022/08/01 03:02:54;;;;;;;6.65;2.08;;;23.70;63.80;;;;;;5025137;28;20018;-66
2022/08/01 03:05:20;;;;;;;5.07;1.98;;;23.70;63.80;;;;;;5025554;28;20024;-66
2022/08/01 03:07:46;;;;;;;4.93;2.30;;;23.70;63.90;;;;;;5025042;28;20029;-66
2022/08/01 03:10:11;;;;;;;5.00;2.20;;;23.70;63.80;;;;;;5024481;28;20036;-66
2022/08/01 03:12:37;;;;;;;5.82;2.20;;;23.70;63.80;;;;;;5022601;28;20037;-67
2022/08/01 03:15:03;;;;;;;6.10;1.95;;;23.70;63.90;;;;;;5024909;28;20030;-66
2022/08/01 03:17:29;;;;;;;4.90;2.00;;;23.70;63.80;;;;;;5025008;28;20435;-66
2022/08/01 03:19:56;;;;;;;4.35;1.88;;;23.70;63.80;;;;;;5041702;28;20029;-66
2022/08/01 03:22:22;;;;;;;4.43;2.15;;;23.70;63.80;;;;;;5023500;28;20141;-66
2022/08/01 03:24:49;;;;;;;4.60;2.15;;;23.70;63.80;;;;;;5025086;28;20075;-66
2022/08/01 03:27:15;;;;;;;5.38;2.20;;;23.70;63.80;;;;;;5026328;28;20099;-66
2022/08/01 03:29:41;;;;;;;4.95;2.00;;;23.70;63.90;;;;;;5036712;28;20652;-66
2022/08/01 03:32:06;;;;;;;6.25;2.30;;;23.60;63.80;;;;;;5025649;28;20534;-66
2022/08/01 03:34:32;;;;;;;4.75;2.10;;;23.70;63.90;;;;;;5039743;28;20030;-66
2022/08/01 03:37:09;;;;;;;4.63;2.30;;;23.70;63.80;;;;;;5026364;28;20113;-66
2022/08/01 03:39:39;;;;;;;4.68;2.03;;;23.70;63.80;;;;;;5019981;28;20628;-66
2022/08/01 03:42:12;;;;;;;4.43;2.20;;;23.60;63.80;;;;;;5025653;28;20442;-66
2022/08/01 03:44:39;;;;;;;5.75;2.10;;;23.60;63.80;;;;;;5025374;28;20033;-66
2022/08/01 03:47:06;;;;;;;4.88;2.00;;;23.60;63.70;;;;;;5040213;28;20112;-66
2022/08/01 03:49:33;;;;;;;3.58;2.03;;;23.60;63.80;;;;;;5024290;28;20032;-66
2022/08/01 03:52:00;;;;;;;4.53;2.13;;;23.60;63.80;;;;;;5025284;28;20026;-66
2022/08/01 03:54:30;;;;;;;3.90;2.10;;;23.60;63.80;;;;;;5052223;28;20093;-66
2022/08/01 03:56:55;;;;;;;4.07;2.00;;;23.60;63.80;;;;;;5025332;28;20052;-66
2022/08/01 03:59:21;;;;;;;6.43;2.40;;;23.60;63.80;;;;;;5028921;28;20502;-66
2022/08/01 04:01:47;;;;;;;4.13;1.92;;;23.60;63.90;;;;;;5009982;28;20029;-66
2022/08/01 04:04:12;;;;;;;3.40;2.10;;;23.60;63.80;;;;;;5029385;28;20032;-66
2022/08/01 04:06:39;;;;;;;4.43;1.90;;;23.60;63.80;;;;;;5029086;28;20020;-66
2022/08/01 04:09:07;;;;;;;5.72;2.08;;;23.60;63.80;;;;;;5028359;28;20116;-66
2022/08/01 04:11:32;;;;;;;3.80;1.90;;;23.60;63.80;;;;;;5028106;28;20033;-66
2022/08/01 04:13:58;;;;;;;4.10;1.85;;;23.60;63.80;;;;;;5028834;28;20034;-66
2022/08/01 04:16:24;;;;;;;4.43;2.10;;;23.60;63.80;;;;;;5028339;28;20029;-66
2022/08/01 04:18:49;;;;;;;4.95;1.90;;;23.60;63.80;;;;;;5026377;28;20037;-66
2022/08/01 04:21:16;;;;;;;5.20;2.10;;;23.50;63.80;;;;;;5028477;28;20131;-66
2022/08/01 04:23:42;;;;;;;3.80;2.00;;;23.60;63.80;;;;;;5027760;28;20065;-66
2022/08/01 04:26:07;;;;;;;6.05;2.00;;;23.60;63.80;;;;;;5027464;28;20056;-66
2022/08/01 04:28:34;;;;;;;3.15;1.70;;;23.60;63.80;;;;;;5026548;28;20074;-66
2022/08/01 04:31:00;;;;;;;3.40;1.75;;;23.60;63.80;;;;;;5025912;28;20101;-66
2022/08/01 04:33:25;;;;;;;5.25;1.95;;;23.60;63.80;;;;;;5028139;28;20104;-66
2022/08/01 04:35:51;;;;;;;5.00;1.90;;;23.60;63.80;;;;;;5013266;28;20033;-65
2022/08/01 04:38:21;;;;;;;4.25;1.80;;;23.50;63.70;;;;;;5041480;28;20038;-66
2022/08/01 04:40:48;;;;;;;4.20;1.80;;;23.50;63.70;;;;;;5010819;28;20018;-66
2022/08/01 04:43:14;;;;;;;3.88;1.83;;;23.50;63.70;;;;;;5027141;28;20506;-66
2022/08/01 04:45:43;;;;;;;5.75;2.20;;;23.50;63.80;;;;;;5025025;28;20033;-66
2022/08/01 04:48:09;;;;;;;5.68;2.15;;;23.50;63.70;;;;;;5027242;28;20061;-66
2022/08/01 04:50:36;;;;;;;4.55;1.60;;;23.50;63.70;;;;;;5026485;28;20056;-66
2022/08/01 04:53:02;;;;;;;4.93;2.10;;;23.50;63.70;;;;;;5023789;28;20057;-66
2022/08/01 04:55:28;;;;;;;3.60;1.83;;;23.50;63.80;;;;;;5025076;28;20390;-66
2022/08/01 04:57:54;;;;;;;4.20;2.00;;;23.50;63.80;;;;;;5022238;28;20041;-66
2022/08/01 05:00:20;;;;;;;4.85;1.80;;;23.50;63.70;;;;;;5027294;28;20437;-66
2022/08/01 05:02:46;;;;;;;3.20;1.75;;;23.50;63.70;;;;;;5025530;28;20056;-66
2022/08/01 05:05:12;;;;;;;3.33;1.80;;;23.50;63.70;;;;;;5027359;28;20029;-66
2022/08/01 05:07:37;;;;;;;3.25;1.80;;;23.50;63.80;;;;;;5023960;28;20067;-66
2022/08/01 05:10:06;;;;;;;3.45;1.80;;;23.50;63.70;;;;;;5025523;28;20102;-66
2022/08/01 05:12:32;;;;;;;4.25;1.90;;;23.50;63.90;;;;;;5026320;28;20434;-66
2022/08/01 05:15:01;;;;;;;3.75;1.80;;;23.50;64.00;;;;;;5023135;28;20014;-66
2022/08/01 05:17:27;;;;;;;3.42;2.08;;;23.50;63.90;;;;;;5025400;28;20709;-66
2022/08/01 05:19:53;;;;;;;5.28;1.70;;;23.50;64.00;;;;;;5025772;28;20037;-66
2022/08/01 05:22:18;;;;;;;6.30;2.00;;;23.50;64.00;;;;;;5022650;28;20028;-66
2022/08/01 05:24:44;;;;;;;4.65;1.90;;;23.50;64.00;;;;;;5024573;28;20025;-66
2022/08/01 05:27:10;;;;;;;4.15;1.83;;;23.50;64.00;;;;;;5025646;28;20486;-65
2022/08/01 05:29:35;;;;;;;2.85;1.73;;;23.50;63.80;;;;;;5024013;28;20033;-66
2022/08/01 05:32:01;;;;;;;6.60;1.98;;;23.50;63.80;;;;;;5026688;28;20482;-66
2022/08/01 05:34:27;;;;;;;4.00;1.85;;;23.50;64.30;;;;;;5026874;28;20516;-66
2022/08/01 05:36:52;;;;;;;4.72;2.10;;;23.50;63.90;;;;;;5026360;28;20051;-66
2022/08/01 05:39:18;;;;;;;3.95;1.90;;;23.50;63.90;;;;;;5026347;28;20521;-66
2022/08/01 05:41:44;;;;;;;2.75;1.70;;;23.50;63.80;;;;;;5025305;28;20628;-66
2022/08/01 05:44:10;;;;;;;5.75;2.00;;;23.50;63.80;;;;;;5027278;28;20087;-66
2022/08/01 05:46:35;;;;;;;4.25;1.90;;;23.50;63.80;;;;;;5026458;28;20026;-66
2022/08/01 05:49:02;;;;;;;5.05;1.83;;;23.50;63.80;;;;;;5027776;28;20459;-66
2022/08/01 05:51:27;;;;;;;4.53;2.00;;;23.50;63.80;;;;;;5025105;28;20026;-66
2022/08/01 05:53:53;;;;;;;6.30;1.90;;;23.50;63.80;;;;;;5026525;28;20039;-66
2022/08/01 05:56:19;;;;;;;6.93;2.08;;;23.50;63.80;;;;;;5025508;28;20149;-66
2022/08/01 05:58:45;;;;;;;6.43;2.00;;;23.50;63.80;;;;;;5023081;28;20033;-66
2022/08/01 06:01:11;;;;;;;5.15;1.90;;;23.40;63.80;;;;;;5026899;28;20025;-66
2022/08/01 06:03:36;;;;;;;4.50;1.70;;;23.50;63.90;;;;;;5026037;28;20032;-66
2022/08/01 06:06:03;;;;;;;4.20;2.10;;;23.50;63.80;;;;;;5027062;28;20057;-66
2022/08/01 06:08:28;;;;;;;6.40;1.90;;;23.50;63.90;;;;;;5026661;28;20029;-66
2022/08/01 06:10:54;;;;;;;4.50;1.83;;;23.40;63.80;;;;;;5026389;28;20036;-66
2022/08/01 06:13:20;;;;;;;3.15;1.63;;;23.40;63.80;;;;;;5025438;28;20030;-66
2022/08/01 06:15:46;;;;;;;3.92;1.80;;;23.50;63.80;;;;;;5025186;28;20090;-66
2022/08/01 06:18:11;;;;;;;5.38;1.90;;;23.40;63.80;;;;;;5025842;28;20069;-66
2022/08/01 06:20:37;;;;;;;3.67;1.80;;;23.40;63.80;;;;;;5023764;28;20048;-66
2022/08/01 06:23:03;;;;;;;5.93;1.85;;;23.40;63.80;;;;;;5024720;28;20040;-66
2022/08/01 06:25:29;;;;;;;4.68;1.70;;;23.40;63.80;;;;;;5024497;28;20032;-66
2022/08/01 06:27:54;;;;;;;5.43;2.00;;;23.40;63.80;;;;;;5027299;28;20142;-66
2022/08/01 06:30:20;;;;;;;3.45;1.73;;;23.40;63.80;;;;;;5027093;28;20018;-66
2022/08/01 06:32:46;;;;;;;6.50;1.95;;;23.40;63.80;;;;;;5024435;28;20048;-66
2022/08/01 06:35:12;;;;;;;3.75;1.73;;;23.40;63.80;;;;;;5025383;28;20033;-66
2022/08/01 06:37:38;;;;;;;6.00;1.70;;;23.40;63.80;;;;;;5024736;28;20533;-66
2022/08/01 06:40:04;;;;;;;4.28;1.80;;;23.40;63.80;;;;;;5025891;28;21667;-66
2022/08/01 06:42:35;;;;;;;4.50;1.80;;;23.40;63.90;;;;;;5041813;28;20020;-65
2022/08/01 06:45:05;;;;;;;4.03;1.67;;;23.40;63.80;;;;;;5025254;28;20047;-66
2022/08/01 06:47:31;;;;;;;6.85;1.85;;;23.40;63.80;;;;;;5025187;28;20049;-66
2022/08/01 06:49:57;;;;;;;3.40;1.80;;;23.40;63.80;;;;;;5024325;28;20449;-65
2022/08/01 06:52:22;;;;;;;3.53;1.90;;;23.30;63.70;;;;;;5023664;28;20445;-66
2022/08/01 06:54:48;;;;;;;4.68;1.80;;;23.40;63.80;;;;;;5025498;28;20514;-66
2022/08/01 06:57:14;;;;;;;3.70;1.55;;;23.30;63.70;;;;;;5024317;28;20032;-66
2022/08/01 06:59:39;;;;;;;3.13;1.70;;;23.30;63.80;;;;;;5025085;28;20041;-66
2022/08/01 07:02:06;;;;;;;5.30;1.80;;;23.30;63.70;;;;;;5025806;28;20025;-66
2022/08/01 07:04:31;;;;;;;4.72;1.88;;;23.30;63.70;;;;;;5023601;28;20037;-66
2022/08/01 07:06:57;;;;;;;3.13;1.73;;;23.30;63.60;;;;;;5023806;28;20033;-66
2022/08/01 07:09:23;;;;;;;3.00;1.50;;;23.40;63.70;;;;;;5023626;28;20033;-66
2022/08/01 07:11:50;;;;;;;4.15;1.50;;;23.30;63.60;;;;;;5022672;28;20030;-66
2022/08/01 07:14:16;;;;;;;4.65;1.85;;;23.30;63.70;;;;;;5024312;28;20033;-66
2022/08/01 07:16:41;;;;;;;3.78;1.58;;;23.40;63.70;;;;;;5023815;28;20098;-66
2022/08/01 07:19:07;;;;;;;3.10;1.60;;;23.30;63.60;;;;;;5023941;28;20041;-65
2022/08/01 07:21:33;;;;;;;2.80;1.58;;;23.30;63.60;;;;;;5024850;28;20036;-66
2022/08/01 07:23:59;;;;;;;4.55;1.95;;;23.30;63.60;;;;;;5006172;28;20037;-66
2022/08/01 07:26:24;;;;;;;3.05;1.50;;;23.30;63.90;;;;;;5023619;28;20939;-66
2022/08/01 07:28:50;;;;;;;3.30;1.73;;;23.30;63.60;;;;;;5024763;28;20632;-66
2022/08/01 07:31:16;;;;;;;4.03;1.60;;;23.30;63.50;;;;;;5024752;28;20029;-66
2022/08/01 07:33:41;;;;;;;4.65;1.90;;;23.30;63.50;;;;;;5027342;28;20029;-66
2022/08/01 07:36:07;;;;;;;3.33;1.80;;;23.30;63.50;;;;;;5027494;28;20500;-65
2022/08/01 07:38:33;;;;;;;4.28;1.60;;;23.30;63.50;;;;;;5026975;28;20040;-66
2022/08/01 07:40:58;;;;;;;3.40;1.70;;;23.40;63.30;;;;;;5027650;28;20026;-66
2022/08/01 07:43:24;;;;;;;2.88;1.60;;;23.40;63.30;;;;;;5030400;28;20112;-66
2022/08/01 07:45:49;;;;;;;4.45;1.70;;;23.40;63.30;;;;;;5028367;28;20065;-66
2022/08/01 07:48:15;;;;;;;3.22;1.60;;;23.40;63.30;;;;;;5026766;28;20453;-66
2022/08/01 07:50:41;;;;;;;3.50;1.63;;;23.40;63.30;;;;;;5027432;28;20465;-66
2022/08/01 07:53:06;;;;;;;2.63;1.60;;;23.40;63.30;;;;;;5028705;28;20136;-66
2022/08/01 07:55:32;;;;;;;2.92;1.67;;;23.50;63.30;;;;;;5029240;28;20030;-66
2022/08/01 07:57:58;;;;;;;3.30;1.80;;;23.50;63.40;;;;;;5027596;28;20077;-67
2022/08/01 08:00:23;;;;;;;5.18;1.90;;;23.40;63.30;;;;;;5029356;28;20033;-66
2022/08/01 08:02:49;;;;;;;3.40;1.40;;;23.40;63.30;;;;;;5029800;28;20049;-66
2022/08/01 08:05:15;;;;;;;3.22;1.50;;;23.40;64.30;;;;;;5027865;28;20143;-66
2022/08/01 08:07:40;;;;;;;2.72;1.50;;;23.50;63.30;;;;;;5027362;28;20053;-66
2022/08/01 08:10:06;;;;;;;3.03;1.58;;;23.40;63.30;;;;;;5028839;28;20033;-66
2022/08/01 08:12:32;;;;;;;3.50;1.52;;;23.40;63.30;;;;;;5028962;28;20049;-66
2022/08/01 08:14:58;;;;;;;2.58;1.33;;;23.40;63.30;;;;;;5029846;28;20030;-66
2022/08/01 08:17:25;;;;;;;3.13;1.70;;;23.40;63.30;;;;;;5026408;28;20116;-66
2022/08/01 08:19:50;;;;;;;2.90;1.75;;;23.40;63.30;;;;;;5028447;28;20036;-66
2022/08/01 08:22:16;;;;;;;3.20;1.58;;;23.40;63.30;;;;;;5027379;28;20026;-66
2022/08/01 08:24:42;;;;;;;3.60;1.55;;;23.40;63.30;;;;;;5026756;28;20029;-66
2022/08/01 08:27:07;;;;;;;3.20;1.30;;;23.40;63.30;;;;;;5028708;28;20163;-66
2022/08/01 08:29:33;;;;;;;4.03;1.70;;;23.40;64.40;;;;;;5027523;28;20414;-66
2022/08/01 08:31:59;;;;;;;2.63;1.40;;;23.40;63.30;;;;;;5028718;28;20448;-66
2022/08/01 08:34:26;;;;;;;2.30;1.40;;;23.40;63.40;;;;;;5027344;28;20500;-66
2022/08/01 08:36:51;;;;;;;3.38;1.60;;;23.40;63.30;;;;;;5026738;28;20478;-66
2022/08/01 08:39:17;;;;;;;3.45;1.40;;;23.40;63.30;;;;;;5026647;28;20033;-66
2022/08/01 08:41:43;;;;;;;3.58;1.48;;;23.40;63.30;;;;;;5030550;28;20032;-66
2022/08/01 08:44:09;;;;;;;3.20;1.60;;;23.40;63.80;;;;;;5027134;28;20021;-66
2022/08/01 08:46:40;;;;;;;2.80;1.45;;;23.40;63.30;;;;;;5025909;28;20037;-66
2022/08/01 08:49:05;;;;;;;4.05;1.50;;;23.40;63.30;;;;;;5026933;28;20520;-66
2022/08/01 08:51:31;;;;;;;3.35;1.50;;;23.40;63.30;;;;;;5025621;28;20022;-66
2022/08/01 08:53:57;;;;;;;2.03;1.40;;;23.40;63.30;;;;;;5026497;28;20519;-66
2022/08/01 08:56:24;;;;;;;2.33;1.50;;;23.40;63.30;;;;;;5027142;28;20138;-66
2022/08/01 08:58:50;;;;;;;2.75;1.48;;;23.40;63.30;;;;;;5026708;28;20421;-66
2022/08/01 09:01:17;;;;;;;3.85;1.60;;;23.40;63.30;;;;;;5026878;28;20436;-66
2022/08/01 09:03:43;;;;;;;3.42;1.60;;;23.40;63.30;;;;;;5024536;28;20052;-66
2022/08/01 09:06:08;;;;;;;2.92;1.50;;;23.40;63.30;;;;;;5026053;28;20486;-66
2022/08/01 09:08:34;;;;;;;3.15;1.70;;;23.40;63.30;;;;;;5026686;28;20029;-66
2022/08/01 09:11:00;;;;;;;3.75;1.67;;;23.40;63.40;;;;;;5025829;28;20425;-66
2022/08/01 09:13:25;;;;;;;1.73;1.30;;;23.40;63.30;;;;;;5028842;28;20048;-66
2022/08/01 09:15:58;;;;;;;2.63;1.50;;;23.40;63.30;;;;;;5026718;28;20037;-66
2022/08/01 09:18:44;;;;;;;3.55;1.60;;;23.40;63.30;;;;;;5027224;28;20035;-66
2022/08/01 09:21:12;;;;;;;1.77;1.30;;;23.40;64.30;;;;;;5025795;28;20057;-66
2022/08/01 09:23:46;;;;;;;2.05;1.30;;;23.50;63.40;;;;;;5026112;28;20413;-66
2022/08/01 09:26:12;;;;;;;2.50;1.20;;;23.40;63.30;;;;;;5027004;28;20087;-66
2022/08/01 09:28:38;;;;;;;2.33;1.30;;;23.40;63.20;;;;;;5025112;28;20302;-66
2022/08/01 09:31:12;;;;;;;2.97;1.75;;;23.50;63.20;;;;;;5026775;28;20029;-66
2022/08/01 09:33:54;;;;;;;2.95;1.50;;;23.50;63.10;;;;;;5025205;28;20136;-66
2022/08/01 09:36:23;;;;;;;2.83;1.48;;;23.50;63.00;;;;;;5025718;28;20041;-66
2022/08/01 09:38:50;;;;;;;3.40;1.52;;;23.50;62.90;;;;;;5024735;28;20049;-66
2022/08/01 09:41:16;;;;;;;2.20;1.45;;;23.50;62.90;;;;;;5025747;28;20030;-66
2022/08/01 09:43:47;;;;;;;2.13;1.45;;;23.50;62.90;;;;;;5025761;28;20084;-66
2022/08/01 09:46:13;;;;;;;2.88;1.50;;;23.50;63.30;;;;;;5027249;28;20441;-66
2022/08/01 09:48:39;;;;;;;2.63;1.50;;;23.50;62.90;;;;;;5027788;28;20033;-66
2022/08/01 09:51:05;;;;;;;2.30;1.48;;;23.50;62.90;;;;;;5027066;28;20116;-66
2022/08/01 09:53:45;;;;;;;2.35;1.52;;;23.50;62.90;;;;;;5024289;28;20062;-66
2022/08/01 09:56:11;;;;;;;2.80;1.50;;;23.50;62.90;;;;;;5027485;28;20124;-66
2022/08/01 09:58:58;;;;;;;2.08;1.40;;;23.50;62.80;;;;;;5025879;28;20049;-66
2022/08/01 10:01:23;;;;;;;2.38;1.23;;;23.50;62.90;;;;;;5027834;28;20113;-66
2022/08/01 10:04:24;;;;;;;2.40;1.30;;;23.50;62.80;;;;;;5026240;28;20521;-66
2022/08/01 10:06:52;;;;;;;2.42;1.50;;;23.50;62.90;;;;;;5027014;28;20444;-66
2022/08/01 10:09:33;;;;;;;1.55;1.30;;;23.50;62.80;;;;;;5027058;28;20022;-66
2022/08/01 10:11:59;;;;;;;3.45;1.40;;;23.50;62.90;;;;;;5021474;28;20525;-66
2022/08/01 10:14:25;;;;;;;2.63;1.40;;;23.50;62.90;;;;;;5026419;28;20030;-66
2022/08/01 10:16:53;;;;;;;2.28;1.42;;;23.50;62.80;;;;;;5025662;28;20041;-66
2022/08/01 10:19:19;;;;;;;2.83;1.50;;;23.50;62.80;;;;;;5025807;28;20088;-66
2022/08/01 10:21:49;;;;;;;1.92;1.40;;;23.50;62.80;;;;;;5025854;28;20018;-66
2022/08/01 10:24:15;;;;;;;2.45;1.55;;;23.50;62.70;;;;;;5035399;28;20032;-66
2022/08/01 10:26:40;;;;;;;2.95;1.45;;;23.50;62.70;;;;;;5023968;28;20037;-67
2022/08/01 10:29:06;;;;;;;3.20;1.55;;;23.50;62.80;;;;;;5041347;28;20052;-66
2022/08/01 10:31:32;;;;;;;2.60;1.30;;;23.50;62.70;;;;;;5024037;28;20036;-66
2022/08/01 10:33:59;;;;;;;3.47;1.42;;;23.50;62.90;;;;;;5025323;28;20041;-66
2022/08/01 10:36:25;;;;;;;3.05;1.60;;;23.50;62.80;;;;;;5024569;28;20249;-66
2022/08/01 10:38:51;;;;;;;7.25;2.40;;;23.60;63.10;;;;;;5026347;28;20524;-66
2022/08/01 10:41:17;;;;;;;9.98;5.97;;;23.60;63.40;;;;;;5024931;28;20022;-66
2022/08/01 10:43:43;;;;;;;13.50;6.88;;;23.60;63.40;;;;;;5040323;28;20026;-66
2022/08/01 10:46:09;;;;;;;14.95;9.48;;;23.60;63.40;;;;;;5025063;28;20030;-66
2022/08/01 10:48:56;;;;;;;11.27;6.28;;;23.60;63.30;;;;;;5023329;28;20382;-66
2022/08/01 10:51:22;;;;;;;14.57;6.63;;;23.60;63.00;;;;;;5006426;28;20284;-66
2022/08/01 10:53:53;;;;;;;13.93;8.40;;;23.70;63.10;;;;;;5039948;28;20049;-66
2022/08/01 10:56:18;;;;;;;11.25;6.50;;;23.70;63.00;;;;;;5024116;28;20025;-66
2022/08/01 10:58:45;;;;;;;14.00;8.25;;;23.70;62.90;;;;;;5024818;28;20061;-66
2022/08/01 11:01:29;;;;;;;13.68;6.95;;;23.70;62.90;;;;;;5023909;28;20013;-66
2022/08/01 11:04:00;;;;;;;13.40;7.53;;;23.70;62.90;;;;;;5022365;28;20064;-66
2022/08/01 11:06:42;;;;;;;11.50;7.13;;;23.70;63.00;;;;;;5026399;28;20515;-66
2022/08/01 11:09:11;;;;;;;13.70;6.63;;;23.80;63.00;;;;;;5022044;28;20032;-65
2022/08/01 11:11:59;;;;;;;10.43;6.65;;;23.80;62.90;;;;;;5025181;28;20050;-66
2022/08/01 11:14:25;;;;;;;14.40;7.00;;;23.70;62.90;;;;;;5024747;28;20033;-66
2022/08/01 11:16:50;;;;;;;13.45;6.90;;;23.80;63.00;;;;;;5025901;28;20449;-66
2022/08/01 11:19:16;;;;;;;11.95;6.90;;;23.80;63.00;;;;;;5025327;28;20104;-66
2022/08/01 11:21:57;;;;;;;12.32;6.50;;;23.80;62.90;;;;;;5025392;28;20108;-66
2022/08/01 11:24:46;;;;;;;13.50;6.47;;;23.80;62.90;;;;;;5023637;28;20612;-66
2022/08/01 11:27:28;;;;;;;12.05;6.43;;;23.80;62.90;;;;;;5026895;28;20034;-66
2022/08/01 11:30:09;;;;;;;13.57;6.50;;;23.80;62.90;;;;;;5018034;28;20403;-66
2022/08/01 11:32:53;;;;;;;13.45;6.45;;;23.80;62.90;;;;;;5023984;28;20025;-66
2022/08/01 11:35:23;;;;;;;10.88;6.93;;;23.80;62.90;;;;;;5024396;28;20068;-66
2022/08/01 11:37:51;;;;;;;12.23;5.97;;;23.80;62.70;;;;;;5024174;28;20084;-66
2022/08/01 11:40:20;;;;;;;11.50;6.35;;;23.80;62.90;;;;;;5025678;28;20606;-66
2022/08/01 11:42:46;;;;;;;11.80;6.75;;;23.90;62.90;;;;;;5025307;28;20462;-65
2022/08/01 11:45:12;;;;;;;10.13;6.05;;;23.90;62.60;;;;;;5025556;28;20080;-66
2022/08/01 11:47:48;;;;;;;10.55;5.88;;;23.90;63.70;;;;;;5025046;28;20395;-67
2022/08/01 11:50:29;;;;;;;10.75;5.57;;;23.90;62.50;;;;;;5022723;28;20481;-66
2022/08/01 11:52:59;;;;;;;10.95;6.15;;;23.90;62.40;;;;;;5022609;28;20770;-66
2022/08/01 11:55:25;;;;;;;10.50;5.68;;;24.00;62.30;;;;;;5023047;28;20030;-66
2022/08/01 11:57:50;;;;;;;9.85;5.63;;;24.00;62.40;;;;;;5024712;28;20087;-66
2022/08/01 12:00:17;;;;;;;10.82;5.47;;;24.00;62.40;;;;;;5040219;28;20032;-66
2022/08/01 12:02:44;;;;;;;8.82;5.63;;;24.00;62.30;;;;;;5024823;28;20489;-66
2022/08/01 12:05:14;;;;;;;12.43;5.90;;;24.00;62.30;;;;;;5024060;28;20021;-65
2022/08/01 12:07:43;;;;;;;11.68;5.47;;;24.00;62.20;;;;;;5024291;28;20027;-66
2022/08/01 12:10:09;;;;;;;9.95;5.07;;;24.00;62.10;;;;;;5025715;28;20048;-66
2022/08/01 12:12:36;;;;;;;11.20;5.50;;;24.00;62.10;;;;;;5024800;28;20437;-66
2022/08/01 12:15:04;;;;;;;13.05;5.72;;;24.00;62.20;;;;;;5021878;28;20164;-66
2022/08/01 12:17:35;;;;;;;9.75;5.35;;;24.00;62.10;;;;;;5024101;28;20030;-66
2022/08/01 12:20:02;;;;;;;9.93;5.18;;;24.00;62.10;;;;;;5028237;28;20037;-66
2022/08/01 12:22:28;;;;;;;9.25;5.03;;;24.10;62.20;;;;;;5028651;28;20513;-65
2022/08/01 12:24:54;;;;;;;9.32;4.90;;;24.10;62.10;;;;;;5027960;28;20037;-66
2022/08/01 12:27:27;;;;;;;9.13;5.25;;;24.10;62.00;;;;;;5025163;28;20033;-66
2022/08/01 12:29:53;;;;;;;8.60;4.82;;;24.10;62.00;;;;;;5029266;28;20029;-66
2022/08/01 12:32:22;;;;;;;8.48;4.70;;;24.10;62.00;;;;;;5026589;28;20573;-66
2022/08/01 12:34:49;;;;;;;10.63;4.85;;;24.10;62.00;;;;;;5028415;28;20033;-66
2022/08/01 12:37:15;;;;;;;8.25;4.55;;;24.10;61.90;;;;;;5027459;28;20122;-66
2022/08/01 12:39:40;;;;;;;8.38;4.72;;;24.10;62.00;;;;;;5027322;28;20030;-66
2022/08/01 12:42:10;;;;;;;9.48;4.90;;;24.10;62.00;;;;;;5026794;28;20555;-66
2022/08/01 12:44:36;;;;;;;9.15;4.70;;;24.10;61.90;;;;;;5028408;28;20100;-66
2022/08/01 12:47:01;;;;;;;8.88;4.80;;;24.10;61.90;;;;;;5028205;28;20593;-66
2022/08/01 12:49:27;;;;;;;9.15;4.72;;;24.20;61.80;;;;;;5028594;28;20810;-66